Wilmington, OH

8:03 PM EDT on March 30, 2015 (GMT -0400)
OHDOT | | Change Station
CLOSE
Current Station
Personal Weather Station
Location: Wilmington, OH
Elevation: 1070 ft
Nearby Weather Stations

Elev 1070 ft 39.41 °N, 83.85 °W | Updated 21 minutes ago

Partly Cloudy
Partly Cloudy
53.0 °F
Feels Like 53.0 °F
N
3.0
Wind Variable Wind from South
Gusts 7.0 mph

Today
High -- | Low -- °F
--% Chance of Precip.
Yesterday
High -- | Low -- °F
Precip. -- in
7:23 AM 7:57 PM
Waxing Gibbous, 83% visible
Pressure 30.08 in
Visibility 10.0 miles
Clouds Few 7000 ft
Dew Point 29.0 °F
Humidity 40%
Rainfall in
Snow Depth Not available.
UV 0 out of 12
Pollen 10.90 out of 12
Air Quality Not available.
Flu Activity Not available.
METAR KILN 302354Z AUTO 26006KT 10SM FEW070 11/M03 A3004 RMK AO2 SLP184 T01111028 10139 20111 55000

More Conditions Fewer Conditions

Pressure 30.08 in
Visibility 10.0 miles
Clouds Few 7000 ft
Dew Point 29.0 °F
Humidity 40%
Rainfall in
Snow Depth Not available.
UV 0 out of 12
Pollen 10.90 out of 12
Air Quality Not available.
Flu Activity Not available.
METAR KILN 302354Z AUTO 26006KT 10SM FEW070 11/M03 A3004 RMK AO2 SLP184 T01111028 10139 20111 55000

More Conditions Fewer Conditions

10-Day Weather Forecast

Almanac

Astronomy

Mar. 30, 2015 Rise Set
Actual Time
Civil Twilight
Nautical Twilight
Astronomical Twilight
Moon
Length of Visible Light
Length of Day
Tomorrow will be .
, % of the Moon is Illuminated

Today's Extremes

State Highs State Lows

Community

WunderPhotos

Upload Photos

1,809,618 photos uploaded!

WunderBlogs® & News

Nearby

Air Quality

  Air Quality AQ Index Pollutant
Not available.

Snow Depth

Station Depth Elevation

Earthquake Activity

City Distance Mag. Time & Date
Minimum magnitude displayed is 2.5.

Coastal Water Temperatures

Place Temperature

Stations

Nearby Weather Stations

Station Location Temp. Windchill Dew Point Humidity Wind Precip. Elev Updated Type